createdAt,value
2023-03-29T00:01:55.664Z,14.40
2023-03-29T00:04:28.856Z,14.93
2023-03-29T00:06:58.158Z,13.77
2023-03-29T00:09:31.373Z,12.38
2023-03-29T00:12:01.654Z,14.30
2023-03-29T00:14:31.785Z,15.65
2023-03-29T00:17:01.187Z,15.93
2023-03-29T00:19:30.251Z,15.57
2023-03-29T00:21:59.246Z,16.83
2023-03-29T00:24:28.269Z,15.98
2023-03-29T00:26:57.353Z,17.27
2023-03-29T00:29:26.663Z,17.08
2023-03-29T00:31:57.139Z,17.25
2023-03-29T00:34:27.671Z,16.40
2023-03-29T00:36:59.097Z,17.52
2023-03-29T00:39:29.237Z,19.30
2023-03-29T00:41:58.345Z,18.75
2023-03-29T00:45:00.875Z,18.20
2023-03-29T00:47:38.188Z,15.32
2023-03-29T00:50:32.166Z,14.07
2023-03-29T00:53:16.218Z,14.57
2023-03-29T00:55:54.393Z,16.40
2023-03-29T00:58:51.173Z,15.63
2023-03-29T01:01:30.089Z,14.30
2023-03-29T01:04:25.246Z,14.82
2023-03-29T01:07:15.478Z,18.13
2023-03-29T01:09:47.292Z,17.45
2023-03-29T01:12:23.881Z,16.17
2023-03-29T01:14:57.747Z,14.65
2023-03-29T01:17:27.041Z,15.18
2023-03-29T01:20:09.104Z,14.48
2023-03-29T01:22:43.900Z,14.38
2023-03-29T01:25:17.426Z,15.20
2023-03-29T01:28:01.936Z,15.95
2023-03-29T01:30:49.053Z,16.40
2023-03-29T01:33:25.428Z,14.90
2023-03-29T01:36:20.438Z,19.58
2023-03-29T01:39:13.225Z,15.50
2023-03-29T01:41:51.362Z,16.48
2023-03-29T01:44:29.916Z,17.90
2023-03-29T01:47:34.341Z,16.65
2023-03-29T01:50:36.703Z,15.70
2023-03-29T01:53:25.417Z,14.50
2023-03-29T01:55:58.034Z,14.93
2023-03-29T01:58:34.858Z,15.57
2023-03-29T02:01:11.075Z,15.23
2023-03-29T02:03:44.016Z,14.98
2023-03-29T02:06:16.745Z,16.70
2023-03-29T02:08:47.870Z,15.48
2023-03-29T02:11:17.119Z,16.55
2023-03-29T02:13:46.114Z,15.65
2023-03-29T02:16:16.072Z,17.48
2023-03-29T02:18:47.936Z,16.35
2023-03-29T02:21:53.038Z,16.50
2023-03-29T02:24:25.175Z,15.90
2023-03-29T02:26:54.318Z,15.40
2023-03-29T02:29:23.387Z,15.23
2023-03-29T02:31:56.882Z,15.77
2023-03-29T02:34:34.889Z,15.95
2023-03-29T02:37:16.949Z,15.60
2023-03-29T02:39:48.852Z,16.58
2023-03-29T02:42:21.540Z,14.68
2023-03-29T02:44:57.073Z,17.02
2023-03-29T02:47:40.244Z,15.55
2023-03-29T02:50:11.090Z,16.87
2023-03-29T02:52:56.115Z,14.05
2023-03-29T02:55:32.006Z,15.82
2023-03-29T02:58:05.118Z,15.43
2023-03-29T03:00:35.541Z,17.08
2023-03-29T03:03:15.723Z,15.32
2023-03-29T03:05:45.430Z,14.20
2023-03-29T03:08:15.233Z,14.27
2023-03-29T03:10:44.344Z,15.25
2023-03-29T03:13:13.869Z,14.00
2023-03-29T03:15:44.045Z,13.98
2023-03-29T03:18:13.882Z,13.80
2023-03-29T03:20:43.230Z,16.02
2023-03-29T03:23:12.285Z,15.38
2023-03-29T03:25:43.279Z,13.43
2023-03-29T03:28:12.831Z,12.02
2023-03-29T03:30:42.033Z,11.00
2023-03-29T03:33:10.997Z,11.88
2023-03-29T03:35:40.376Z,11.18
2023-03-29T03:38:09.959Z,11.63
2023-03-29T03:40:39.590Z,11.77
2023-03-29T03:43:11.628Z,12.48
2023-03-29T03:45:41.126Z,12.05
2023-03-29T03:48:10.972Z,12.05
2023-03-29T03:50:40.311Z,12.73
2023-03-29T03:53:09.573Z,11.55
2023-03-29T03:55:38.606Z,13.90
2023-03-29T03:58:08.390Z,13.98
2023-03-29T04:00:37.462Z,13.15
2023-03-29T04:03:07.302Z,14.18
2023-03-29T04:05:41.503Z,13.43
2023-03-29T04:08:10.791Z,13.77
2023-03-29T04:10:40.635Z,12.45
2023-03-29T04:13:09.735Z,14.32
2023-03-29T04:15:39.720Z,14.50
2023-03-29T04:18:08.955Z,12.93
2023-03-29T04:20:39.968Z,12.68
2023-03-29T04:23:09.025Z,14.05
2023-03-29T04:25:38.101Z,12.85
2023-03-29T04:28:07.336Z,12.95
2023-03-29T04:30:36.535Z,13.00
2023-03-29T04:33:05.767Z,12.75
2023-03-29T04:35:35.089Z,13.45
2023-03-29T04:38:11.336Z,13.02
2023-03-29T04:40:40.398Z,12.95
2023-03-29T04:43:09.551Z,11.38
2023-03-29T04:45:38.612Z,12.43
2023-03-29T04:48:07.803Z,11.98
2023-03-29T04:50:37.778Z,12.38
2023-03-29T04:53:07.289Z,12.27
2023-03-29T04:55:36.506Z,11.65
2023-03-29T04:58:06.081Z,9.80
2023-03-29T05:00:36.286Z,8.27
2023-03-29T05:03:05.674Z,9.05
2023-03-29T05:05:34.799Z,9.00
2023-03-29T05:08:04.548Z,8.55
2023-03-29T05:10:33.598Z,8.55
2023-03-29T05:13:02.655Z,8.85
2023-03-29T05:15:32.702Z,8.60
2023-03-29T05:18:02.074Z,8.25
2023-03-29T05:20:31.150Z,9.18
2023-03-29T05:23:00.993Z,8.43
2023-03-29T05:25:30.344Z,7.57
2023-03-29T05:28:00.005Z,7.82
2023-03-29T05:30:29.274Z,8.98
2023-03-29T05:32:58.262Z,8.10
2023-03-29T05:35:27.515Z,8.32
2023-03-29T05:37:57.505Z,8.05
2023-03-29T05:40:27.428Z,8.35
2023-03-29T05:42:56.415Z,8.30
2023-03-29T05:45:25.887Z,8.35
2023-03-29T05:47:54.967Z,7.45
2023-03-29T05:50:24.617Z,8.77
2023-03-29T05:52:53.737Z,8.27
2023-03-29T05:55:22.752Z,8.75
2023-03-29T05:57:51.971Z,8.43
2023-03-29T06:00:24.853Z,7.90
2023-03-29T06:02:56.363Z,11.60
2023-03-29T06:05:28.811Z,8.35
2023-03-29T06:07:58.283Z,8.27
2023-03-29T06:10:27.272Z,7.85
2023-03-29T06:12:56.743Z,8.15
2023-03-29T06:15:26.507Z,7.63
2023-03-29T06:17:55.566Z,7.88
2023-03-29T06:20:24.567Z,8.00
2023-03-29T06:22:53.828Z,8.07
2023-03-29T06:25:22.802Z,8.60
2023-03-29T06:27:53.274Z,7.85
2023-03-29T06:30:22.541Z,8.70
2023-03-29T06:32:51.532Z,9.90
2023-03-29T06:35:20.629Z,8.57
2023-03-29T06:37:54.904Z,8.43
2023-03-29T06:40:24.090Z,8.30
2023-03-29T06:42:58.938Z,8.55
2023-03-29T06:45:30.119Z,8.57
2023-03-29T06:47:59.522Z,8.25
2023-03-29T06:50:28.541Z,7.90
2023-03-29T06:52:57.912Z,8.27
2023-03-29T06:55:28.369Z,8.00
2023-03-29T06:57:57.858Z,9.52
2023-03-29T07:00:31.105Z,8.10
2023-03-29T07:03:02.700Z,8.82
2023-03-29T07:05:32.883Z,9.77
2023-03-29T07:08:12.137Z,8.90
2023-03-29T07:10:46.941Z,8.23
2023-03-29T07:13:16.707Z,8.98
2023-03-29T07:15:46.422Z,8.88
2023-03-29T07:18:15.592Z,8.43
2023-03-29T07:20:44.644Z,8.38
2023-03-29T07:23:13.712Z,8.48
2023-03-29T07:25:42.745Z,8.88
2023-03-29T07:28:12.403Z,8.30
2023-03-29T07:30:41.467Z,8.93
2023-03-29T07:33:10.725Z,9.75
2023-03-29T07:35:40.934Z,9.40
2023-03-29T07:38:09.942Z,8.90
2023-03-29T07:40:39.202Z,9.95
2023-03-29T07:43:10.193Z,8.57
2023-03-29T07:45:41.869Z,9.30
2023-03-29T07:48:11.069Z,9.75
2023-03-29T07:50:40.238Z,9.45
2023-03-29T07:53:10.292Z,9.30
2023-03-29T07:55:47.932Z,9.98
2023-03-29T07:58:17.541Z,9.65
2023-03-29T08:00:49.529Z,9.77
2023-03-29T08:03:21.495Z,13.20
2023-03-29T08:05:50.773Z,14.35
2023-03-29T08:08:19.789Z,10.20
2023-03-29T08:10:48.787Z,10.27
2023-03-29T08:13:18.031Z,10.45
2023-03-29T08:15:48.549Z,10.43
2023-03-29T08:18:18.759Z,10.40
2023-03-29T08:20:47.711Z,10.73
2023-03-29T08:23:17.035Z,10.20
2023-03-29T08:25:48.428Z,9.65
2023-03-29T08:28:17.428Z,8.52
2023-03-29T08:30:46.929Z,9.48
2023-03-29T08:33:16.042Z,8.80
2023-03-29T08:35:48.697Z,8.60
2023-03-29T08:38:17.746Z,9.00
2023-03-29T08:40:50.831Z,9.73
2023-03-29T08:44:01.173Z,8.93
2023-03-29T08:46:57.039Z,9.07
2023-03-29T08:49:32.375Z,9.30
2023-03-29T08:52:08.222Z,9.07
2023-03-29T08:54:50.421Z,10.85
2023-03-29T08:57:26.779Z,9.07
2023-03-29T08:59:58.335Z,10.38
2023-03-29T09:02:32.406Z,9.57
2023-03-29T09:05:25.828Z,9.07
2023-03-29T09:07:56.951Z,9.55
2023-03-29T09:10:37.472Z,8.35
2023-03-29T09:13:13.390Z,9.20
2023-03-29T09:16:02.368Z,9.35
2023-03-29T09:19:09.244Z,8.82
2023-03-29T09:21:47.890Z,10.70
2023-03-29T09:24:26.483Z,8.98
2023-03-29T09:27:07.224Z,8.73
2023-03-29T09:29:51.557Z,9.20
2023-03-29T09:32:30.800Z,9.48
2023-03-29T09:35:25.241Z,9.73
2023-03-29T09:37:56.324Z,8.38
2023-03-29T09:40:28.553Z,9.50
2023-03-29T09:42:59.411Z,8.77
2023-03-29T09:45:29.198Z,9.50
2023-03-29T09:48:11.171Z,8.57
2023-03-29T09:50:43.737Z,9.02
2023-03-29T09:53:13.039Z,9.07
2023-03-29T09:55:42.445Z,10.27
2023-03-29T09:58:29.211Z,9.77
2023-03-29T10:01:04.243Z,8.88
2023-03-29T10:03:36.136Z,9.82
2023-03-29T10:06:08.590Z,9.05
2023-03-29T10:08:43.639Z,8.30
2023-03-29T10:11:48.814Z,9.73
2023-03-29T10:14:42.516Z,9.68
2023-03-29T10:17:33.936Z,9.80
2023-03-29T10:20:14.574Z,11.88
2023-03-29T10:22:55.929Z,11.45
2023-03-29T10:25:32.532Z,11.65
2023-03-29T10:28:13.036Z,9.07
2023-03-29T10:30:42.256Z,8.90
2023-03-29T10:33:21.427Z,8.80
2023-03-29T10:35:50.885Z,8.10
2023-03-29T10:38:23.672Z,8.75
2023-03-29T10:40:57.830Z,9.10
2023-03-29T10:43:44.160Z,9.05
2023-03-29T10:46:23.608Z,9.32
2023-03-29T10:49:11.271Z,9.93
2023-03-29T10:51:45.310Z,10.00
2023-03-29T10:54:18.653Z,11.02
2023-03-29T10:56:58.475Z,10.88
2023-03-29T10:59:45.644Z,10.02
2023-03-29T11:02:20.597Z,10.98
2023-03-29T11:05:04.136Z,10.38
2023-03-29T11:08:05.170Z,10.32
2023-03-29T11:11:07.938Z,11.70
2023-03-29T11:13:42.377Z,11.98
2023-03-29T11:16:32.987Z,11.45
2023-03-29T11:19:50.916Z,10.30
2023-03-29T11:22:22.789Z,11.23
2023-03-29T11:24:51.810Z,11.05
2023-03-29T11:27:42.644Z,11.77
2023-03-29T11:30:32.996Z,11.70
2023-03-29T11:33:08.247Z,10.10
2023-03-29T11:35:49.880Z,10.75
2023-03-29T11:38:29.165Z,10.20
2023-03-29T11:41:07.163Z,10.48
2023-03-29T11:44:12.640Z,9.35
2023-03-29T11:46:48.065Z,10.63
2023-03-29T11:49:24.472Z,10.57
2023-03-29T11:52:18.800Z,10.07
2023-03-29T11:54:54.594Z,11.02
2023-03-29T11:57:37.097Z,10.27
2023-03-29T12:00:32.478Z,11.50
2023-03-29T12:03:18.777Z,11.48
2023-03-29T12:05:54.980Z,12.10
2023-03-29T12:08:29.755Z,11.15
2023-03-29T12:11:10.468Z,11.65
2023-03-29T12:13:48.554Z,11.10
2023-03-29T12:16:27.739Z,11.02
2023-03-29T12:18:59.552Z,10.88
2023-03-29T12:21:32.208Z,11.85
2023-03-29T12:24:01.628Z,12.48
2023-03-29T12:26:55.019Z,11.98
2023-03-29T12:29:45.374Z,12.10
2023-03-29T12:32:26.597Z,12.00
2023-03-29T12:35:01.971Z,11.82
2023-03-29T12:37:49.558Z,12.15
2023-03-29T12:40:23.074Z,12.18
2023-03-29T12:42:59.593Z,11.77
2023-03-29T12:45:39.735Z,13.43
2023-03-29T12:48:16.344Z,12.18
2023-03-29T12:50:55.046Z,12.02
2023-03-29T12:53:34.315Z,10.95
2023-03-29T12:56:09.862Z,12.27
2023-03-29T12:58:42.707Z,12.45
2023-03-29T13:01:28.601Z,12.52
2023-03-29T13:04:05.315Z,12.63
2023-03-29T13:07:04.245Z,12.43
2023-03-29T13:09:55.041Z,14.05
2023-03-29T13:12:30.794Z,14.95
2023-03-29T13:15:25.178Z,14.77
2023-03-29T13:18:27.643Z,15.73
2023-03-29T13:21:05.391Z,15.48
2023-03-29T13:23:37.611Z,15.10
2023-03-29T13:26:09.622Z,15.38
2023-03-29T13:29:12.704Z,13.52
2023-03-29T13:32:00.321Z,14.13
2023-03-29T13:34:42.447Z,13.77
2023-03-29T13:37:39.915Z,13.23
2023-03-29T13:40:27.838Z,12.93
2023-03-29T13:43:11.827Z,13.23
2023-03-29T13:45:41.743Z,13.65
2023-03-29T13:48:30.708Z,12.90
2023-03-29T13:51:09.334Z,12.65
2023-03-29T13:53:48.085Z,13.48
2023-03-29T13:56:26.758Z,13.65
2023-03-29T13:59:14.898Z,14.02
2023-03-29T14:01:50.442Z,15.38
2023-03-29T14:04:25.956Z,15.13
2023-03-29T14:06:57.723Z,15.18
2023-03-29T14:09:33.410Z,15.50
2023-03-29T14:12:03.211Z,15.48
2023-03-29T14:14:35.176Z,13.75
2023-03-29T14:17:05.229Z,13.82
2023-03-29T14:19:39.612Z,14.50
2023-03-29T14:22:21.197Z,13.80
2023-03-29T14:24:55.185Z,13.10
2023-03-29T14:29:54.432Z,13.45
2023-03-29T14:32:31.616Z,13.60
2023-03-29T14:35:03.008Z,13.25
2023-03-29T14:37:32.226Z,13.50
2023-03-29T14:40:02.658Z,13.50
2023-03-29T14:42:31.807Z,12.00
2023-03-29T14:45:06.053Z,13.75
2023-03-29T14:47:36.140Z,14.13
2023-03-29T14:50:06.111Z,13.38
2023-03-29T14:52:36.100Z,12.95
2023-03-29T14:55:05.638Z,13.05
2023-03-29T14:57:39.252Z,13.50
2023-03-29T15:00:27.172Z,12.63
2023-03-29T15:02:58.813Z,15.02
2023-03-29T15:05:35.039Z,14.02
2023-03-29T15:08:05.586Z,13.02
2023-03-29T15:10:38.035Z,12.00
2023-03-29T15:13:09.051Z,13.75
2023-03-29T15:15:41.405Z,12.68
2023-03-29T15:18:16.022Z,13.40
2023-03-29T15:20:46.250Z,13.50
2023-03-29T15:23:18.024Z,14.13
2023-03-29T15:25:59.923Z,13.20
2023-03-29T15:28:37.015Z,13.80
2023-03-29T15:31:20.931Z,13.55
2023-03-29T15:33:50.051Z,13.40
2023-03-29T15:36:19.132Z,13.35
2023-03-29T15:38:51.808Z,12.32
2023-03-29T15:41:20.854Z,13.18
2023-03-29T15:43:49.926Z,13.68
2023-03-29T15:46:18.964Z,13.15
2023-03-29T15:48:48.028Z,14.60
2023-03-29T15:51:17.234Z,13.82
2023-03-29T15:53:46.455Z,13.20
2023-03-29T15:56:19.912Z,14.85
2023-03-29T15:58:49.402Z,14.18
2023-03-29T16:01:41.710Z,14.48
2023-03-29T16:04:19.719Z,14.05
2023-03-29T16:06:54.179Z,13.63
2023-03-29T16:09:24.308Z,13.77
2023-03-29T16:11:53.581Z,14.25
2023-03-29T16:14:31.033Z,13.80
2023-03-29T16:17:01.973Z,14.23
2023-03-29T16:19:32.551Z,16.13
2023-03-29T16:22:04.292Z,13.32
2023-03-29T16:24:35.248Z,14.25
2023-03-29T16:27:05.091Z,14.60
2023-03-29T16:29:34.229Z,14.15
2023-03-29T16:32:05.495Z,14.60
2023-03-29T16:34:37.070Z,15.93
2023-03-29T16:37:06.307Z,16.70
2023-03-29T16:39:35.631Z,15.50
2023-03-29T16:42:05.116Z,15.68
2023-03-29T16:44:34.070Z,15.68
2023-03-29T16:47:03.137Z,15.75
2023-03-29T16:49:32.373Z,15.73
2023-03-29T16:52:01.382Z,14.82
2023-03-29T16:54:32.909Z,15.65
2023-03-29T16:57:01.953Z,16.50
2023-03-29T16:59:30.925Z,16.38
2023-03-29T17:01:59.998Z,17.23
2023-03-29T17:04:29.075Z,15.77
2023-03-29T17:06:58.314Z,17.50
2023-03-29T17:09:29.308Z,17.85
2023-03-29T17:11:59.110Z,17.02
2023-03-29T17:14:28.215Z,16.50
2023-03-29T17:16:57.220Z,18.10
2023-03-29T17:19:26.306Z,16.95
2023-03-29T17:21:55.288Z,17.92
2023-03-29T17:24:24.291Z,18.27
2023-03-29T17:26:53.316Z,19.40
2023-03-29T17:29:22.279Z,18.30
2023-03-29T17:31:51.451Z,18.55
2023-03-29T17:34:21.217Z,17.90
2023-03-29T17:36:50.222Z,18.33
2023-03-29T17:39:19.852Z,17.70
2023-03-29T17:41:49.617Z,16.73
2023-03-29T17:44:18.691Z,18.00
2023-03-29T17:46:48.043Z,18.30
2023-03-29T17:49:17.352Z,18.02
2023-03-29T17:51:46.545Z,16.88
2023-03-29T17:54:15.546Z,17.85
2023-03-29T17:56:44.565Z,18.63
2023-03-29T17:59:13.576Z,18.25
2023-03-29T18:01:42.993Z,19.02
2023-03-29T18:04:12.593Z,19.38
2023-03-29T18:06:41.706Z,17.88
2023-03-29T18:09:11.331Z,18.38
2023-03-29T18:11:40.606Z,18.85
2023-03-29T18:14:09.584Z,18.88
2023-03-29T18:16:38.609Z,19.63
2023-03-29T18:19:07.653Z,19.60
2023-03-29T18:21:36.691Z,21.15
2023-03-29T18:24:05.817Z,20.05
2023-03-29T18:26:34.935Z,21.08
2023-03-29T18:29:03.942Z,19.38
2023-03-29T18:31:32.918Z,19.65
2023-03-29T18:34:02.048Z,19.50
2023-03-29T18:36:31.608Z,20.15
2023-03-29T18:39:06.636Z,19.27
2023-03-29T18:41:38.380Z,19.90
2023-03-29T18:44:08.751Z,19.55
2023-03-29T18:46:37.808Z,21.25
2023-03-29T18:49:08.899Z,22.05
2023-03-29T18:51:37.954Z,18.75
2023-03-29T18:54:07.279Z,19.70
2023-03-29T18:56:36.943Z,20.00
2023-03-29T18:59:07.440Z,19.35
2023-03-29T19:01:36.584Z,22.35
2023-03-29T19:04:06.062Z,20.92
2023-03-29T19:06:35.101Z,21.60
2023-03-29T19:09:06.378Z,20.45
2023-03-29T19:11:37.210Z,20.73
2023-03-29T19:14:10.112Z,21.60
2023-03-29T19:16:40.840Z,19.73
2023-03-29T19:19:11.969Z,22.08
2023-03-29T19:21:40.979Z,21.23
2023-03-29T19:24:10.314Z,22.23
2023-03-29T19:26:39.373Z,21.52
2023-03-29T19:29:08.486Z,23.33
2023-03-29T19:31:39.109Z,23.02
2023-03-29T19:34:10.837Z,21.00
2023-03-29T19:36:40.097Z,22.02
2023-03-29T19:39:09.068Z,22.40
2023-03-29T19:41:38.995Z,21.83
2023-03-29T19:44:09.834Z,23.55
2023-03-29T19:46:38.931Z,23.05
2023-03-29T19:49:09.666Z,23.40
2023-03-29T19:51:38.638Z,22.02
2023-03-29T19:54:08.254Z,23.35
2023-03-29T19:56:37.316Z,23.15
2023-03-29T19:59:06.622Z,24.35
2023-03-29T20:01:35.814Z,23.45
2023-03-29T20:04:04.907Z,23.63
2023-03-29T20:06:33.965Z,23.58
2023-03-29T20:09:03.262Z,24.83
2023-03-29T20:11:32.377Z,25.30
2023-03-29T20:14:01.560Z,23.65
2023-03-29T20:16:34.247Z,23.90
2023-03-29T20:19:03.985Z,23.92
2023-03-29T20:21:34.825Z,23.70
2023-03-29T20:24:03.823Z,24.13
2023-03-29T20:26:32.897Z,23.85
2023-03-29T20:29:01.952Z,23.83
2023-03-29T20:31:31.236Z,25.60
2023-03-29T20:34:00.274Z,25.35
2023-03-29T20:36:31.876Z,24.77
2023-03-29T20:39:01.432Z,26.42
2023-03-29T20:41:30.530Z,27.25
2023-03-29T20:44:00.020Z,25.90
2023-03-29T20:46:39.510Z,24.85
2023-03-29T20:49:10.105Z,28.95
2023-03-29T20:51:39.795Z,26.55
2023-03-29T20:54:11.171Z,25.48
2023-03-29T20:56:43.276Z,25.63
2023-03-29T20:59:12.318Z,24.60
2023-03-29T21:01:41.857Z,24.88
2023-03-29T21:04:11.942Z,24.80
2023-03-29T21:06:40.941Z,23.65
2023-03-29T21:09:09.969Z,24.70
2023-03-29T21:11:39.610Z,25.92
2023-03-29T21:14:08.581Z,26.27
2023-03-29T21:16:38.035Z,27.33
2023-03-29T21:19:07.010Z,26.90
2023-03-29T21:21:37.056Z,25.15
2023-03-29T21:24:06.286Z,26.25
2023-03-29T21:26:35.867Z,26.88
2023-03-29T21:29:04.992Z,27.48
2023-03-29T21:31:34.129Z,27.95
2023-03-29T21:34:03.100Z,27.50
2023-03-29T21:36:32.451Z,27.80
2023-03-29T21:39:01.631Z,27.20
2023-03-29T21:41:30.639Z,28.50
2023-03-29T21:43:59.616Z,26.33
2023-03-29T21:46:28.717Z,27.92
2023-03-29T21:48:57.874Z,27.08
2023-03-29T21:51:26.859Z,29.33
2023-03-29T21:53:55.872Z,26.58
2023-03-29T21:56:24.862Z,29.55
2023-03-29T21:58:53.826Z,29.98
2023-03-29T22:01:22.952Z,27.98
2023-03-29T22:03:52.152Z,39.20
2023-03-29T22:06:22.528Z,34.90
2023-03-29T22:08:54.269Z,29.45
2023-03-29T22:11:24.451Z,29.75
2023-03-29T22:13:54.100Z,30.35
2023-03-29T22:16:26.814Z,30.05
2023-03-29T22:18:55.939Z,29.85
2023-03-29T22:21:27.656Z,31.83
2023-03-29T22:23:58.896Z,28.73
2023-03-29T22:26:30.932Z,30.13
2023-03-29T22:29:01.470Z,31.30
2023-03-29T22:31:31.706Z,30.70
2023-03-29T22:34:01.869Z,30.98
2023-03-29T22:36:33.026Z,30.05
2023-03-29T22:39:02.059Z,30.60
2023-03-29T22:41:31.145Z,32.92
2023-03-29T22:44:02.287Z,31.42
2023-03-29T22:46:31.702Z,31.10
2023-03-29T22:49:00.802Z,29.38
2023-03-29T22:51:29.821Z,30.60
2023-03-29T22:53:58.836Z,34.30
2023-03-29T22:56:28.388Z,32.85
2023-03-29T22:58:57.375Z,33.47
2023-03-29T23:01:26.767Z,29.83
2023-03-29T23:03:55.881Z,34.40
2023-03-29T23:06:25.134Z,31.08
2023-03-29T23:08:54.151Z,31.38
2023-03-29T23:11:24.041Z,29.08
2023-03-29T23:13:53.693Z,30.02
2023-03-29T23:16:23.103Z,31.33
2023-03-29T23:18:52.348Z,32.78
2023-03-29T23:21:21.361Z,30.95
2023-03-29T23:23:50.671Z,35.13
2023-03-29T23:26:19.775Z,28.65
2023-03-29T23:28:48.829Z,30.65
2023-03-29T23:31:19.971Z,33.05
2023-03-29T23:33:49.130Z,31.60
2023-03-29T23:36:20.005Z,31.73
2023-03-29T23:38:49.977Z,31.27
2023-03-29T23:41:19.871Z,31.40
2023-03-29T23:43:51.331Z,31.60
2023-03-29T23:46:20.345Z,30.63
2023-03-29T23:48:51.372Z,31.65
2023-03-29T23:51:23.824Z,30.65
2023-03-29T23:53:53.017Z,30.13
2023-03-29T23:56:25.507Z,29.50
2023-03-29T23:58:54.953Z,29.05
